sensor_id;sensor_type;location;lat;lon;timestamp;temperature;humidity
69359;HTU21D;56520;49.066;8.660;2024-01-30T00:01:55;0.44;94.73
69359;HTU21D;56520;49.066;8.660;2024-01-30T00:04:21;0.44;94.78
69359;HTU21D;56520;49.066;8.660;2024-01-30T00:06:46;0.43;94.77
69359;HTU21D;56520;49.066;8.660;2024-01-30T00:09:11;0.39;94.73
69359;HTU21D;56520;49.066;8.660;2024-01-30T00:11:37;0.37;94.71
69359;HTU21D;56520;49.066;8.660;2024-01-30T00:14:04;0.35;94.74
69359;HTU21D;56520;49.066;8.660;2024-01-30T00:16:29;0.33;94.74
69359;HTU21D;56520;49.066;8.660;2024-01-30T00:18:55;0.31;94.77
69359;HTU21D;56520;49.066;8.660;2024-01-30T00:21:21;0.29;94.77
69359;HTU21D;56520;49.066;8.660;2024-01-30T00:23:47;0.25;94.79
69359;HTU21D;56520;49.066;8.660;2024-01-30T00:26:12;0.24;94.85
69359;HTU21D;56520;49.066;8.660;2024-01-30T00:28:40;0.21;94.88
69359;HTU21D;56520;49.066;8.660;2024-01-30T00:31:05;0.17;94.88
69359;HTU21D;56520;49.066;8.660;2024-01-30T00:33:31;0.16;94.90
69359;HTU21D;56520;49.066;8.660;2024-01-30T00:35:56;0.15;94.94
69359;HTU21D;56520;49.066;8.660;2024-01-30T00:38:22;0.14;95.02
69359;HTU21D;56520;49.066;8.660;2024-01-30T00:40:47;0.13;95.08
69359;HTU21D;56520;49.066;8.660;2024-01-30T00:43:13;0.14;95.10
69359;HTU21D;56520;49.066;8.660;2024-01-30T00:45:38;0.12;95.15
69359;HTU21D;56520;49.066;8.660;2024-01-30T00:48:04;0.10;95.19
69359;HTU21D;56520;49.066;8.660;2024-01-30T00:50:29;0.08;95.22
69359;HTU21D;56520;49.066;8.660;2024-01-30T00:52:55;0.06;95.26
69359;HTU21D;56520;49.066;8.660;2024-01-30T00:55:20;0.05;95.30
69359;HTU21D;56520;49.066;8.660;2024-01-30T00:57:46;0.04;95.32
69359;HTU21D;56520;49.066;8.660;2024-01-30T01:00:12;0.03;95.32
69359;HTU21D;56520;49.066;8.660;2024-01-30T01:02:38;-0.00;95.31
69359;HTU21D;56520;49.066;8.660;2024-01-30T01:05:06;-0.00;95.32
69359;HTU21D;56520;49.066;8.660;2024-01-30T01:07:32;-0.02;95.36
69359;HTU21D;56520;49.066;8.660;2024-01-30T01:09:57;-0.03;95.41
69359;HTU21D;56520;49.066;8.660;2024-01-30T01:12:22;-0.05;95.46
69359;HTU21D;56520;49.066;8.660;2024-01-30T01:14:48;-0.07;95.50
69359;HTU21D;56520;49.066;8.660;2024-01-30T01:17:13;-0.09;95.54
69359;HTU21D;56520;49.066;8.660;2024-01-30T01:19:39;-0.10;95.62
69359;HTU21D;56520;49.066;8.660;2024-01-30T01:22:04;-0.11;95.66
69359;HTU21D;56520;49.066;8.660;2024-01-30T01:24:32;-0.11;95.68
69359;HTU21D;56520;49.066;8.660;2024-01-30T01:26:58;-0.13;95.71
69359;HTU21D;56520;49.066;8.660;2024-01-30T01:29:24;-0.14;95.71
69359;HTU21D;56520;49.066;8.660;2024-01-30T01:31:54;-0.15;95.69
69359;HTU21D;56520;49.066;8.660;2024-01-30T01:34:20;-0.16;95.73
69359;HTU21D;56520;49.066;8.660;2024-01-30T01:36:45;-0.20;95.78
69359;HTU21D;56520;49.066;8.660;2024-01-30T01:39:10;-0.23;95.75
69359;HTU21D;56520;49.066;8.660;2024-01-30T01:41:36;-0.25;95.74
69359;HTU21D;56520;49.066;8.660;2024-01-30T01:44:01;-0.28;95.72
69359;HTU21D;56520;49.066;8.660;2024-01-30T01:46:27;-0.30;95.73
69359;HTU21D;56520;49.066;8.660;2024-01-30T01:48:55;-0.31;95.73
69359;HTU21D;56520;49.066;8.660;2024-01-30T01:51:23;-0.31;95.75
69359;HTU21D;56520;49.066;8.660;2024-01-30T01:53:50;-0.32;95.78
69359;HTU21D;56520;49.066;8.660;2024-01-30T01:56:16;-0.31;95.86
69359;HTU21D;56520;49.066;8.660;2024-01-30T01:58:41;-0.30;95.87
69359;HTU21D;56520;49.066;8.660;2024-01-30T02:01:09;-0.28;95.88
69359;HTU21D;56520;49.066;8.660;2024-01-30T02:03:36;-0.28;95.90
69359;HTU21D;56520;49.066;8.660;2024-01-30T02:06:02;-0.29;95.90
69359;HTU21D;56520;49.066;8.660;2024-01-30T02:08:28;-0.30;95.90
69359;HTU21D;56520;49.066;8.660;2024-01-30T02:10:53;-0.32;95.91
69359;HTU21D;56520;49.066;8.660;2024-01-30T02:13:20;-0.35;95.90
69359;HTU21D;56520;49.066;8.660;2024-01-30T02:15:49;-0.37;95.90
69359;HTU21D;56520;49.066;8.660;2024-01-30T02:18:15;-0.38;95.93
69359;HTU21D;56520;49.066;8.660;2024-01-30T02:20:41;-0.38;95.94
69359;HTU21D;56520;49.066;8.660;2024-01-30T02:23:07;-0.41;95.94
69359;HTU21D;56520;49.066;8.660;2024-01-30T02:25:38;-0.43;95.94
69359;HTU21D;56520;49.066;8.660;2024-01-30T02:28:04;-0.46;95.94
69359;HTU21D;56520;49.066;8.660;2024-01-30T02:30:29;-0.49;95.94
69359;HTU21D;56520;49.066;8.660;2024-01-30T02:32:54;-0.51;95.92
69359;HTU21D;56520;49.066;8.660;2024-01-30T02:35:20;-0.53;95.94
69359;HTU21D;56520;49.066;8.660;2024-01-30T02:37:45;-0.55;95.97
69359;HTU21D;56520;49.066;8.660;2024-01-30T02:40:11;-0.57;95.95
69359;HTU21D;56520;49.066;8.660;2024-01-30T02:42:36;-0.60;95.97
69359;HTU21D;56520;49.066;8.660;2024-01-30T02:45:01;-0.61;95.98
69359;HTU21D;56520;49.066;8.660;2024-01-30T02:47:27;-0.65;96.01
69359;HTU21D;56520;49.066;8.660;2024-01-30T02:49:52;-0.67;96.04
69359;HTU21D;56520;49.066;8.660;2024-01-30T02:52:18;-0.67;96.10
69359;HTU21D;56520;49.066;8.660;2024-01-30T02:54:44;-0.69;96.15
69359;HTU21D;56520;49.066;8.660;2024-01-30T02:57:09;-0.70;96.18
69359;HTU21D;56520;49.066;8.660;2024-01-30T02:59:35;-0.71;96.24
69359;HTU21D;56520;49.066;8.660;2024-01-30T03:02:01;-0.73;96.26
69359;HTU21D;56520;49.066;8.660;2024-01-30T03:04:26;-0.74;96.28
69359;HTU21D;56520;49.066;8.660;2024-01-30T03:06:52;-0.76;96.29
69359;HTU21D;56520;49.066;8.660;2024-01-30T03:09:18;-0.76;96.34
69359;HTU21D;56520;49.066;8.660;2024-01-30T03:11:43;-0.77;96.34
69359;HTU21D;56520;49.066;8.660;2024-01-30T03:14:09;-0.80;96.35
69359;HTU21D;56520;49.066;8.660;2024-01-30T03:16:36;-0.80;96.36
69359;HTU21D;56520;49.066;8.660;2024-01-30T03:19:02;-0.81;96.40
69359;HTU21D;56520;49.066;8.660;2024-01-30T03:21:29;-0.81;96.42
69359;HTU21D;56520;49.066;8.660;2024-01-30T03:23:54;-0.81;96.43
69359;HTU21D;56520;49.066;8.660;2024-01-30T03:26:19;-0.79;96.42
69359;HTU21D;56520;49.066;8.660;2024-01-30T03:28:45;-0.82;96.42
69359;HTU21D;56520;49.066;8.660;2024-01-30T03:31:12;-0.83;96.42
69359;HTU21D;56520;49.066;8.660;2024-01-30T03:33:37;-0.84;96.43
69359;HTU21D;56520;49.066;8.660;2024-01-30T03:36:04;-0.86;96.44
69359;HTU21D;56520;49.066;8.660;2024-01-30T03:38:30;-0.87;96.46
69359;HTU21D;56520;49.066;8.660;2024-01-30T03:40:58;-0.88;96.49
69359;HTU21D;56520;49.066;8.660;2024-01-30T03:43:23;-0.89;96.51
69359;HTU21D;56520;49.066;8.660;2024-01-30T03:45:49;-0.89;96.52
69359;HTU21D;56520;49.066;8.660;2024-01-30T03:48:14;-0.90;96.55
69359;HTU21D;56520;49.066;8.660;2024-01-30T03:50:39;-0.90;96.58
69359;HTU21D;56520;49.066;8.660;2024-01-30T03:53:05;-0.90;96.57
69359;HTU21D;56520;49.066;8.660;2024-01-30T03:55:30;-0.94;96.55
69359;HTU21D;56520;49.066;8.660;2024-01-30T03:57:55;-0.95;96.55
69359;HTU21D;56520;49.066;8.660;2024-01-30T04:00:21;-0.97;96.56
69359;HTU21D;56520;49.066;8.660;2024-01-30T04:02:46;-0.98;96.59
69359;HTU21D;56520;49.066;8.660;2024-01-30T04:05:11;-1.01;96.62
69359;HTU21D;56520;49.066;8.660;2024-01-30T04:07:37;-1.03;96.62
69359;HTU21D;56520;49.066;8.660;2024-01-30T04:10:02;-1.04;96.66
69359;HTU21D;56520;49.066;8.660;2024-01-30T04:12:31;-1.05;96.66
69359;HTU21D;56520;49.066;8.660;2024-01-30T04:14:56;-1.05;96.69
69359;HTU21D;56520;49.066;8.660;2024-01-30T04:17:21;-1.08;96.72
69359;HTU21D;56520;49.066;8.660;2024-01-30T04:19:47;-1.06;96.72
69359;HTU21D;56520;49.066;8.660;2024-01-30T04:22:12;-1.06;96.72
69359;HTU21D;56520;49.066;8.660;2024-01-30T04:24:38;-1.09;96.74
69359;HTU21D;56520;49.066;8.660;2024-01-30T04:27:03;-1.11;96.75
69359;HTU21D;56520;49.066;8.660;2024-01-30T04:29:29;-1.12;96.78
69359;HTU21D;56520;49.066;8.660;2024-01-30T04:31:54;-1.12;96.80
69359;HTU21D;56520;49.066;8.660;2024-01-30T04:34:20;-1.11;96.85
69359;HTU21D;56520;49.066;8.660;2024-01-30T04:36:45;-1.09;97.00
69359;HTU21D;56520;49.066;8.660;2024-01-30T04:39:11;-1.09;97.03
69359;HTU21D;56520;49.066;8.660;2024-01-30T04:41:37;-1.09;97.07
69359;HTU21D;56520;49.066;8.660;2024-01-30T04:44:03;-1.11;97.09
69359;HTU21D;56520;49.066;8.660;2024-01-30T04:46:28;-1.12;97.12
69359;HTU21D;56520;49.066;8.660;2024-01-30T04:48:54;-1.12;97.16
69359;HTU21D;56520;49.066;8.660;2024-01-30T04:51:19;-1.11;97.19
69359;HTU21D;56520;49.066;8.660;2024-01-30T04:53:45;-1.11;97.18
69359;HTU21D;56520;49.066;8.660;2024-01-30T04:56:10;-1.12;97.20
69359;HTU21D;56520;49.066;8.660;2024-01-30T04:58:36;-1.11;97.20
69359;HTU21D;56520;49.066;8.660;2024-01-30T05:01:02;-1.11;97.22
69359;HTU21D;56520;49.066;8.660;2024-01-30T05:03:27;-1.13;97.27
69359;HTU21D;56520;49.066;8.660;2024-01-30T05:05:53;-1.16;97.26
69359;HTU21D;56520;49.066;8.660;2024-01-30T05:08:18;-1.17;97.25
69359;HTU21D;56520;49.066;8.660;2024-01-30T05:10:43;-1.18;97.25
69359;HTU21D;56520;49.066;8.660;2024-01-30T05:13:09;-1.17;97.25
69359;HTU21D;56520;49.066;8.660;2024-01-30T05:15:35;-1.15;97.26
69359;HTU21D;56520;49.066;8.660;2024-01-30T05:18:01;-1.15;97.24
69359;HTU21D;56520;49.066;8.660;2024-01-30T05:20:26;-1.15;97.26
69359;HTU21D;56520;49.066;8.660;2024-01-30T05:22:55;-1.13;97.28
69359;HTU21D;56520;49.066;8.660;2024-01-30T05:25:20;-1.14;97.29
69359;HTU21D;56520;49.066;8.660;2024-01-30T05:27:46;-1.14;97.32
69359;HTU21D;56520;49.066;8.660;2024-01-30T05:30:11;-1.14;97.33
69359;HTU21D;56520;49.066;8.660;2024-01-30T05:32:37;-1.16;97.34
69359;HTU21D;56520;49.066;8.660;2024-01-30T05:35:02;-1.15;97.36
69359;HTU21D;56520;49.066;8.660;2024-01-30T05:37:28;-1.14;97.36
69359;HTU21D;56520;49.066;8.660;2024-01-30T05:39:53;-1.14;97.36
69359;HTU21D;56520;49.066;8.660;2024-01-30T05:42:19;-1.16;97.36
69359;HTU21D;56520;49.066;8.660;2024-01-30T05:44:44;-1.16;97.34
69359;HTU21D;56520;49.066;8.660;2024-01-30T05:47:09;-1.18;97.33
69359;HTU21D;56520;49.066;8.660;2024-01-30T05:49:35;-1.18;97.33
69359;HTU21D;56520;49.066;8.660;2024-01-30T05:52:02;-1.18;97.33
69359;HTU21D;56520;49.066;8.660;2024-01-30T05:54:28;-1.16;97.37
69359;HTU21D;56520;49.066;8.660;2024-01-30T05:56:53;-1.16;97.37
69359;HTU21D;56520;49.066;8.660;2024-01-30T05:59:19;-1.15;97.48
69359;HTU21D;56520;49.066;8.660;2024-01-30T06:01:47;-1.16;97.48
69359;HTU21D;56520;49.066;8.660;2024-01-30T06:04:14;-1.18;97.45
69359;HTU21D;56520;49.066;8.660;2024-01-30T06:06:39;-1.19;97.50
69359;HTU21D;56520;49.066;8.660;2024-01-30T06:09:05;-1.19;97.51
69359;HTU21D;56520;49.066;8.660;2024-01-30T06:11:30;-1.17;97.52
69359;HTU21D;56520;49.066;8.660;2024-01-30T06:13:56;-1.17;97.51
69359;HTU21D;56520;49.066;8.660;2024-01-30T06:16:21;-1.17;97.52
69359;HTU21D;56520;49.066;8.660;2024-01-30T06:18:47;-1.15;97.55
69359;HTU21D;56520;49.066;8.660;2024-01-30T06:21:13;-1.14;97.59
69359;HTU21D;56520;49.066;8.660;2024-01-30T06:23:38;-1.14;97.61
69359;HTU21D;56520;49.066;8.660;2024-01-30T06:26:06;-1.12;97.62
69359;HTU21D;56520;49.066;8.660;2024-01-30T06:28:31;-1.14;97.64
69359;HTU21D;56520;49.066;8.660;2024-01-30T06:30:57;-1.15;97.63
69359;HTU21D;56520;49.066;8.660;2024-01-30T06:33:22;-1.17;97.63
69359;HTU21D;56520;49.066;8.660;2024-01-30T06:35:48;-1.18;97.63
69359;HTU21D;56520;49.066;8.660;2024-01-30T06:38:13;-1.18;97.64
69359;HTU21D;56520;49.066;8.660;2024-01-30T06:40:41;-1.19;97.64
69359;HTU21D;56520;49.066;8.660;2024-01-30T06:43:06;-1.20;97.63
69359;HTU21D;56520;49.066;8.660;2024-01-30T06:45:33;-1.19;97.65
69359;HTU21D;56520;49.066;8.660;2024-01-30T06:47:59;-1.18;97.64
69359;HTU21D;56520;49.066;8.660;2024-01-30T06:50:25;-1.18;97.63
69359;HTU21D;56520;49.066;8.660;2024-01-30T06:52:50;-1.20;97.62
69359;HTU21D;56520;49.066;8.660;2024-01-30T06:55:16;-1.21;97.64
69359;HTU21D;56520;49.066;8.660;2024-01-30T06:57:41;-1.24;97.63
69359;HTU21D;56520;49.066;8.660;2024-01-30T07:00:07;-1.20;97.70
69359;HTU21D;56520;49.066;8.660;2024-01-30T07:02:32;-1.19;98.04
69359;HTU21D;56520;49.066;8.660;2024-01-30T07:04:58;-1.20;98.20
69359;HTU21D;56520;49.066;8.660;2024-01-30T07:07:23;-1.23;98.10
69359;HTU21D;56520;49.066;8.660;2024-01-30T07:09:49;-1.21;98.03
69359;HTU21D;56520;49.066;8.660;2024-01-30T07:12:17;-1.20;97.97
69359;HTU21D;56520;49.066;8.660;2024-01-30T07:14:43;-1.17;97.92
69359;HTU21D;56520;49.066;8.660;2024-01-30T07:17:08;-1.16;97.90
69359;HTU21D;56520;49.066;8.660;2024-01-30T07:19:34;-1.10;97.90
69359;HTU21D;56520;49.066;8.660;2024-01-30T07:22:00;-1.06;97.88
69359;HTU21D;56520;49.066;8.660;2024-01-30T07:24:26;-1.04;97.88
69359;HTU21D;56520;49.066;8.660;2024-01-30T07:26:52;-1.03;97.88
69359;HTU21D;56520;49.066;8.660;2024-01-30T07:29:17;-1.02;97.87
69359;HTU21D;56520;49.066;8.660;2024-01-30T07:31:43;-1.02;97.84
69359;HTU21D;56520;49.066;8.660;2024-01-30T07:34:09;-0.99;97.85
69359;HTU21D;56520;49.066;8.660;2024-01-30T07:36:34;-0.98;97.97
69359;HTU21D;56520;49.066;8.660;2024-01-30T07:39:00;-0.97;97.99
69359;HTU21D;56520;49.066;8.660;2024-01-30T07:41:25;-0.94;97.90
69359;HTU21D;56520;49.066;8.660;2024-01-30T07:43:50;-0.88;97.83
69359;HTU21D;56520;49.066;8.660;2024-01-30T07:46:16;-0.83;97.84
69359;HTU21D;56520;49.066;8.660;2024-01-30T07:48:41;-0.76;97.84
69359;HTU21D;56520;49.066;8.660;2024-01-30T07:51:07;-0.72;97.82
69359;HTU21D;56520;49.066;8.660;2024-01-30T07:53:32;-0.69;97.80
69359;HTU21D;56520;49.066;8.660;2024-01-30T07:55:58;-0.62;97.75
69359;HTU21D;56520;49.066;8.660;2024-01-30T07:58:23;-0.55;97.68
69359;HTU21D;56520;49.066;8.660;2024-01-30T08:00:49;-0.50;97.61
69359;HTU21D;56520;49.066;8.660;2024-01-30T08:03:14;-0.43;97.55
69359;HTU21D;56520;49.066;8.660;2024-01-30T08:05:41;-0.34;97.49
69359;HTU21D;56520;49.066;8.660;2024-01-30T08:08:07;-0.24;97.39
69359;HTU21D;56520;49.066;8.660;2024-01-30T08:10:32;-0.11;97.32
69359;HTU21D;56520;49.066;8.660;2024-01-30T08:12:58;0.03;97.23
69359;HTU21D;56520;49.066;8.660;2024-01-30T08:15:23;0.16;97.14
69359;HTU21D;56520;49.066;8.660;2024-01-30T08:17:49;0.30;96.98
69359;HTU21D;56520;49.066;8.660;2024-01-30T08:20:14;0.39;96.76
69359;HTU21D;56520;49.066;8.660;2024-01-30T08:22:40;0.51;96.53
69359;HTU21D;56520;49.066;8.660;2024-01-30T08:25:06;0.63;96.29
69359;HTU21D;56520;49.066;8.660;2024-01-30T08:27:32;0.79;95.99
69359;HTU21D;56520;49.066;8.660;2024-01-30T08:29:57;0.95;95.65
69359;HTU21D;56520;49.066;8.660;2024-01-30T08:32:23;1.17;95.39
69359;HTU21D;56520;49.066;8.660;2024-01-30T08:34:49;1.53;95.20
69359;HTU21D;56520;49.066;8.660;2024-01-30T08:37:14;1.93;94.94
69359;HTU21D;56520;49.066;8.660;2024-01-30T08:39:42;2.31;94.82
69359;HTU21D;56520;49.066;8.660;2024-01-30T08:42:07;2.70;94.94
69359;HTU21D;56520;49.066;8.660;2024-01-30T08:44:33;2.91;95.15
69359;HTU21D;56520;49.066;8.660;2024-01-30T08:46:58;3.01;95.41
69359;HTU21D;56520;49.066;8.660;2024-01-30T08:49:23;3.13;95.58
69359;HTU21D;56520;49.066;8.660;2024-01-30T08:51:49;3.41;95.56
69359;HTU21D;56520;49.066;8.660;2024-01-30T08:54:15;3.56;95.57
69359;HTU21D;56520;49.066;8.660;2024-01-30T08:56:41;3.83;95.45
69359;HTU21D;56520;49.066;8.660;2024-01-30T08:59:06;4.08;94.88
69359;HTU21D;56520;49.066;8.660;2024-01-30T09:01:31;4.13;94.04
69359;HTU21D;56520;49.066;8.660;2024-01-30T09:03:57;4.02;93.36
69359;HTU21D;56520;49.066;8.660;2024-01-30T09:06:23;3.88;92.79
69359;HTU21D;56520;49.066;8.660;2024-01-30T09:08:49;3.71;92.48
69359;HTU21D;56520;49.066;8.660;2024-01-30T09:11:15;3.55;92.08
69359;HTU21D;56520;49.066;8.660;2024-01-30T09:13:41;3.38;91.96
69359;HTU21D;56520;49.066;8.660;2024-01-30T09:16:07;3.31;91.92
69359;HTU21D;56520;49.066;8.660;2024-01-30T09:18:32;3.27;91.75
69359;HTU21D;56520;49.066;8.660;2024-01-30T09:20:58;3.24;91.53
69359;HTU21D;56520;49.066;8.660;2024-01-30T09:23:24;3.26;91.36
69359;HTU21D;56520;49.066;8.660;2024-01-30T09:25:50;3.34;91.13
69359;HTU21D;56520;49.066;8.660;2024-01-30T09:28:16;3.43;90.89
69359;HTU21D;56520;49.066;8.660;2024-01-30T09:30:42;3.54;90.54
69359;HTU21D;56520;49.066;8.660;2024-01-30T09:33:07;3.65;90.18
69359;HTU21D;56520;49.066;8.660;2024-01-30T09:35:33;3.73;89.88
69359;HTU21D;56520;49.066;8.660;2024-01-30T09:37:59;3.84;89.43
69359;HTU21D;56520;49.066;8.660;2024-01-30T09:40:24;3.87;89.15
69359;HTU21D;56520;49.066;8.660;2024-01-30T09:42:51;3.80;89.06
69359;HTU21D;56520;49.066;8.660;2024-01-30T09:45:19;3.74;88.85
69359;HTU21D;56520;49.066;8.660;2024-01-30T09:47:45;3.65;88.18
69359;HTU21D;56520;49.066;8.660;2024-01-30T09:50:12;3.55;87.73
69359;HTU21D;56520;49.066;8.660;2024-01-30T09:52:38;3.52;88.12
69359;HTU21D;56520;49.066;8.660;2024-01-30T09:55:04;3.54;88.47
69359;HTU21D;56520;49.066;8.660;2024-01-30T09:57:29;3.61;88.86
69359;HTU21D;56520;49.066;8.660;2024-01-30T09:59:55;3.69;89.00
69359;HTU21D;56520;49.066;8.660;2024-01-30T10:02:21;3.74;88.92
69359;HTU21D;56520;49.066;8.660;2024-01-30T10:04:50;3.79;88.98
69359;HTU21D;56520;49.066;8.660;2024-01-30T10:07:19;3.89;88.91
69359;HTU21D;56520;49.066;8.660;2024-01-30T10:09:45;4.00;88.82
69359;HTU21D;56520;49.066;8.660;2024-01-30T10:12:11;4.18;88.74
69359;HTU21D;56520;49.066;8.660;2024-01-30T10:14:40;4.36;88.54
69359;HTU21D;56520;49.066;8.660;2024-01-30T10:17:08;4.54;88.13
69359;HTU21D;56520;49.066;8.660;2024-01-30T10:19:34;4.74;87.77
69359;HTU21D;56520;49.066;8.660;2024-01-30T10:22:00;4.89;87.44
69359;HTU21D;56520;49.066;8.660;2024-01-30T10:24:26;5.04;86.88
69359;HTU21D;56520;49.066;8.660;2024-01-30T10:26:51;5.16;86.22
69359;HTU21D;56520;49.066;8.660;2024-01-30T10:29:18;5.25;85.90
69359;HTU21D;56520;49.066;8.660;2024-01-30T10:31:43;5.33;85.76
69359;HTU21D;56520;49.066;8.660;2024-01-30T10:34:08;5.35;85.72
69359;HTU21D;56520;49.066;8.660;2024-01-30T10:36:39;5.40;85.77
69359;HTU21D;56520;49.066;8.660;2024-01-30T10:39:08;5.47;85.79
69359;HTU21D;56520;49.066;8.660;2024-01-30T10:41:42;5.47;84.71
69359;HTU21D;56520;49.066;8.660;2024-01-30T10:44:09;5.45;84.54
69359;HTU21D;56520;49.066;8.660;2024-01-30T10:46:38;5.47;85.06
69359;HTU21D;56520;49.066;8.660;2024-01-30T10:49:04;5.63;85.47
69359;HTU21D;56520;49.066;8.660;2024-01-30T10:51:31;5.86;85.34
69359;HTU21D;56520;49.066;8.660;2024-01-30T10:53:57;5.95;85.06
69359;HTU21D;56520;49.066;8.660;2024-01-30T10:56:24;5.99;84.96
69359;HTU21D;56520;49.066;8.660;2024-01-30T10:58:53;6.08;84.91
69359;HTU21D;56520;49.066;8.660;2024-01-30T11:01:20;6.23;84.75
69359;HTU21D;56520;49.066;8.660;2024-01-30T11:03:51;6.37;84.49
69359;HTU21D;56520;49.066;8.660;2024-01-30T11:06:16;6.54;83.75
69359;HTU21D;56520;49.066;8.660;2024-01-30T11:08:46;6.68;83.45
69359;HTU21D;56520;49.066;8.660;2024-01-30T11:11:25;6.80;82.62
69359;HTU21D;56520;49.066;8.660;2024-01-30T11:13:50;6.93;82.07
69359;HTU21D;56520;49.066;8.660;2024-01-30T11:16:15;7.08;81.75
69359;HTU21D;56520;49.066;8.660;2024-01-30T11:18:41;7.17;80.81
69359;HTU21D;56520;49.066;8.660;2024-01-30T11:21:06;7.26;79.56
69359;HTU21D;56520;49.066;8.660;2024-01-30T11:23:33;7.34;79.69
69359;HTU21D;56520;49.066;8.660;2024-01-30T11:25:59;7.48;79.89
69359;HTU21D;56520;49.066;8.660;2024-01-30T11:28:32;7.64;78.38
69359;HTU21D;56520;49.066;8.660;2024-01-30T11:31:05;7.75;78.69
69359;HTU21D;56520;49.066;8.660;2024-01-30T11:33:32;7.81;78.87
69359;HTU21D;56520;49.066;8.660;2024-01-30T11:35:59;7.92;79.00
69359;HTU21D;56520;49.066;8.660;2024-01-30T11:38:26;8.05;77.22
69359;HTU21D;56520;49.066;8.660;2024-01-30T11:40:53;8.13;76.89
69359;HTU21D;56520;49.066;8.660;2024-01-30T11:43:19;8.21;76.20
69359;HTU21D;56520;49.066;8.660;2024-01-30T11:45:45;8.36;76.50
69359;HTU21D;56520;49.066;8.660;2024-01-30T11:48:12;8.51;76.89
69359;HTU21D;56520;49.066;8.660;2024-01-30T11:50:37;8.71;76.35
69359;HTU21D;56520;49.066;8.660;2024-01-30T11:53:04;9.07;75.40
69359;HTU21D;56520;49.066;8.660;2024-01-30T11:55:30;9.35;75.16
69359;HTU21D;56520;49.066;8.660;2024-01-30T11:57:56;9.34;74.88
69359;HTU21D;56520;49.066;8.660;2024-01-30T12:00:22;9.30;74.09
69359;HTU21D;56520;49.066;8.660;2024-01-30T12:02:51;9.05;74.37
69359;HTU21D;56520;49.066;8.660;2024-01-30T12:05:27;8.83;74.50
69359;HTU21D;56520;49.066;8.660;2024-01-30T12:07:53;8.64;74.57
69359;HTU21D;56520;49.066;8.660;2024-01-30T12:10:19;8.46;74.89
69359;HTU21D;56520;49.066;8.660;2024-01-30T12:12:49;8.37;75.86
69359;HTU21D;56520;49.066;8.660;2024-01-30T12:15:15;8.36;76.14
69359;HTU21D;56520;49.066;8.660;2024-01-30T12:17:41;8.35;76.02
69359;HTU21D;56520;49.066;8.660;2024-01-30T12:20:14;8.38;76.21
69359;HTU21D;56520;49.066;8.660;2024-01-30T12:22:43;8.50;76.34
69359;HTU21D;56520;49.066;8.660;2024-01-30T12:25:15;8.65;76.50
69359;HTU21D;56520;49.066;8.660;2024-01-30T12:27:46;8.94;75.80
69359;HTU21D;56520;49.066;8.660;2024-01-30T12:30:13;9.17;74.96
69359;HTU21D;56520;49.066;8.660;2024-01-30T12:32:43;9.27;74.86
69359;HTU21D;56520;49.066;8.660;2024-01-30T12:35:10;9.31;74.87
69359;HTU21D;56520;49.066;8.660;2024-01-30T12:37:35;9.44;74.99
69359;HTU21D;56520;49.066;8.660;2024-01-30T12:40:01;9.65;74.35
69359;HTU21D;56520;49.066;8.660;2024-01-30T12:42:27;9.82;73.28
69359;HTU21D;56520;49.066;8.660;2024-01-30T12:44:52;10.05;72.34
69359;HTU21D;56520;49.066;8.660;2024-01-30T12:47:18;10.21;71.53
69359;HTU21D;56520;49.066;8.660;2024-01-30T12:49:44;10.37;71.61
69359;HTU21D;56520;49.066;8.660;2024-01-30T12:52:10;10.51;71.16
69359;HTU21D;56520;49.066;8.660;2024-01-30T12:54:36;10.62;71.01
69359;HTU21D;56520;49.066;8.660;2024-01-30T12:57:02;10.71;70.20
69359;HTU21D;56520;49.066;8.660;2024-01-30T12:59:28;10.87;68.02
69359;HTU21D;56520;49.066;8.660;2024-01-30T13:01:53;10.94;67.11
69359;HTU21D;56520;49.066;8.660;2024-01-30T13:04:19;10.95;65.69
69359;HTU21D;56520;49.066;8.660;2024-01-30T13:06:44;10.99;66.98
69359;HTU21D;56520;49.066;8.660;2024-01-30T13:09:09;10.99;67.23
69359;HTU21D;56520;49.066;8.660;2024-01-30T13:11:35;11.02;67.55
69359;HTU21D;56520;49.066;8.660;2024-01-30T13:14:01;11.07;67.80
69359;HTU21D;56520;49.066;8.660;2024-01-30T13:16:26;11.10;68.13
69359;HTU21D;56520;49.066;8.660;2024-01-30T13:18:51;11.14;67.51
69359;HTU21D;56520;49.066;8.660;2024-01-30T13:21:17;11.19;67.98
69359;HTU21D;56520;49.066;8.660;2024-01-30T13:23:42;11.19;68.42
69359;HTU21D;56520;49.066;8.660;2024-01-30T13:26:08;11.26;68.52
69359;HTU21D;56520;49.066;8.660;2024-01-30T13:28:34;11.19;67.65
69359;HTU21D;56520;49.066;8.660;2024-01-30T13:30:59;11.17;68.36
69359;HTU21D;56520;49.066;8.660;2024-01-30T13:33:25;11.23;68.41
69359;HTU21D;56520;49.066;8.660;2024-01-30T13:35:51;11.30;67.53
69359;HTU21D;56520;49.066;8.660;2024-01-30T13:38:16;11.38;66.85
69359;HTU21D;56520;49.066;8.660;2024-01-30T13:40:42;11.43;67.28
69359;HTU21D;56520;49.066;8.660;2024-01-30T13:43:08;11.52;66.66
69359;HTU21D;56520;49.066;8.660;2024-01-30T13:45:33;11.56;66.32
69359;HTU21D;56520;49.066;8.660;2024-01-30T13:47:58;11.53;67.08
69359;HTU21D;56520;49.066;8.660;2024-01-30T13:50:24;11.51;67.39
69359;HTU21D;56520;49.066;8.660;2024-01-30T13:52:49;11.47;66.53
69359;HTU21D;56520;49.066;8.660;2024-01-30T13:55:15;11.43;66.62
69359;HTU21D;56520;49.066;8.660;2024-01-30T13:57:40;11.40;66.54
69359;HTU21D;56520;49.066;8.660;2024-01-30T14:00:07;11.37;67.02
69359;HTU21D;56520;49.066;8.660;2024-01-30T14:02:33;11.36;66.47
69359;HTU21D;56520;49.066;8.660;2024-01-30T14:04:58;11.34;65.48
69359;HTU21D;56520;49.066;8.660;2024-01-30T14:07:23;11.33;66.25
69359;HTU21D;56520;49.066;8.660;2024-01-30T14:09:49;11.32;66.49
69359;HTU21D;56520;49.066;8.660;2024-01-30T14:12:15;11.37;66.65
69359;HTU21D;56520;49.066;8.660;2024-01-30T14:14:40;11.39;66.91
69359;HTU21D;56520;49.066;8.660;2024-01-30T14:17:06;11.43;67.08
69359;HTU21D;56520;49.066;8.660;2024-01-30T14:19:33;11.45;67.21
69359;HTU21D;56520;49.066;8.660;2024-01-30T14:21:58;11.46;67.43
69359;HTU21D;56520;49.066;8.660;2024-01-30T14:24:23;11.48;65.61
69359;HTU21D;56520;49.066;8.660;2024-01-30T14:26:49;11.47;66.61
69359;HTU21D;56520;49.066;8.660;2024-01-30T14:29:14;11.44;66.44
69359;HTU21D;56520;49.066;8.660;2024-01-30T14:31:40;11.39;66.81
69359;HTU21D;56520;49.066;8.660;2024-01-30T14:34:05;11.36;65.70
69359;HTU21D;56520;49.066;8.660;2024-01-30T14:36:31;11.28;65.75
69359;HTU21D;56520;49.066;8.660;2024-01-30T14:38:56;11.19;66.10
69359;HTU21D;56520;49.066;8.660;2024-01-30T14:41:21;11.14;65.75
69359;HTU21D;56520;49.066;8.660;2024-01-30T14:43:47;11.00;66.55
69359;HTU21D;56520;49.066;8.660;2024-01-30T14:46:13;10.93;66.56
69359;HTU21D;56520;49.066;8.660;2024-01-30T14:48:38;10.87;66.78
69359;HTU21D;56520;49.066;8.660;2024-01-30T14:51:04;10.81;66.95
69359;HTU21D;56520;49.066;8.660;2024-01-30T14:53:29;10.73;67.20
69359;HTU21D;56520;49.066;8.660;2024-01-30T14:55:54;10.71;67.19
69359;HTU21D;56520;49.066;8.660;2024-01-30T14:58:20;10.65;67.30
69359;HTU21D;56520;49.066;8.660;2024-01-30T15:00:45;10.64;67.46
69359;HTU21D;56520;49.066;8.660;2024-01-30T15:03:11;10.56;67.65
69359;HTU21D;56520;49.066;8.660;2024-01-30T15:05:36;10.46;68.15
69359;HTU21D;56520;49.066;8.660;2024-01-30T15:08:01;10.39;68.46
69359;HTU21D;56520;49.066;8.660;2024-01-30T15:10:27;10.33;68.75
69359;HTU21D;56520;49.066;8.660;2024-01-30T15:12:52;10.33;68.98
69359;HTU21D;56520;49.066;8.660;2024-01-30T15:15:18;10.26;69.16